sensor_id;sensor_type;location;lat;lon;timestamp;pressure;altitude;pressure_sealevel;temperature;humidity
49583;BME280;36329;48.816;44.624;2023-03-12T00:02:18;100452;;;5.9;100
49583;BME280;36329;48.816;44.624;2023-03-12T00:05:21;100453;;;5.8;100
49583;BME280;36329;48.816;44.624;2023-03-12T00:08:30;100447;;;5.8;100
49583;BME280;36329;48.816;44.624;2023-03-12T00:11:44;100453;;;5.7;100
49583;BME280;36329;48.816;44.624;2023-03-12T00:14:57;100450;;;5.4;100
49583;BME280;36329;48.816;44.624;2023-03-12T00:17:59;100465;;;5.4;100
49583;BME280;36329;48.816;44.624;2023-03-12T00:21:07;100441;;;5.4;100
49583;BME280;36329;48.816;44.624;2023-03-12T00:24:11;100438;;;5.3;100
49583;BME280;36329;48.816;44.624;2023-03-12T00:27:14;100444;;;5.3;100
49583;BME280;36329;48.816;44.624;2023-03-12T00:30:16;100448;;;5.3;100
49583;BME280;36329;48.816;44.624;2023-03-12T00:33:18;100443;;;5.3;100
49583;BME280;36329;48.816;44.624;2023-03-12T00:36:30;100439;;;5.4;100
49583;BME280;36329;48.816;44.624;2023-03-12T00:39:34;100434;;;5.3;100
49583;BME280;36329;48.816;44.624;2023-03-12T00:42:37;100430;;;5.2;100
49583;BME280;36329;48.816;44.624;2023-03-12T00:45:39;100417;;;5.3;100
49583;BME280;36329;48.816;44.624;2023-03-12T00:48:41;100430;;;5.3;100
49583;BME280;36329;48.816;44.624;2023-03-12T00:51:44;100434;;;5.3;100
49583;BME280;36329;48.816;44.624;2023-03-12T00:54:55;100428;;;5.2;100
49583;BME280;36329;48.816;44.624;2023-03-12T00:57:57;100421;;;5.2;100
49583;BME280;36329;48.816;44.624;2023-03-12T01:01:04;100411;;;5.2;100
49583;BME280;36329;48.816;44.624;2023-03-12T01:04:13;100416;;;5.2;100
49583;BME280;36329;48.816;44.624;2023-03-12T01:07:16;100423;;;5.2;100
49583;BME280;36329;48.816;44.624;2023-03-12T01:10:24;100421;;;5.2;100
49583;BME280;36329;48.816;44.624;2023-03-12T01:13:27;100423;;;5.2;100
49583;BME280;36329;48.816;44.624;2023-03-12T01:16:35;100441;;;5.3;100
49583;BME280;36329;48.816;44.624;2023-03-12T01:19:37;100435;;;5.2;100
49583;BME280;36329;48.816;44.624;2023-03-12T01:22:39;100446;;;5.1;100
49583;BME280;36329;48.816;44.624;2023-03-12T01:25:43;100425;;;5.2;100
49583;BME280;36329;48.816;44.624;2023-03-12T01:28:45;100423;;;5.1;100
49583;BME280;36329;48.816;44.624;2023-03-12T01:31:47;100416;;;5.1;100
49583;BME280;36329;48.816;44.624;2023-03-12T01:34:59;100411;;;5.2;100
49583;BME280;36329;48.816;44.624;2023-03-12T01:38:12;100416;;;5.1;100
49583;BME280;36329;48.816;44.624;2023-03-12T01:41:16;100418;;;5.1;100
49583;BME280;36329;48.816;44.624;2023-03-12T01:44:19;100414;;;5.1;100
49583;BME280;36329;48.816;44.624;2023-03-12T01:47:21;100399;;;5.2;100
49583;BME280;36329;48.816;44.624;2023-03-12T01:50:29;100403;;;5.2;100
49583;BME280;36329;48.816;44.624;2023-03-12T01:53:32;100392;;;5.2;100
49583;BME280;36329;48.816;44.624;2023-03-12T01:56:35;100401;;;5.2;100
49583;BME280;36329;48.816;44.624;2023-03-12T01:59:43;100384;;;5.2;100
49583;BME280;36329;48.816;44.624;2023-03-12T02:02:48;100384;;;5.3;100
49583;BME280;36329;48.816;44.624;2023-03-12T02:05:53;100396;;;5.2;100
49583;BME280;36329;48.816;44.624;2023-03-12T02:08:56;100425;;;5.2;100
49583;BME280;36329;48.816;44.624;2023-03-12T02:12:02;100408;;;5.2;100
49583;BME280;36329;48.816;44.624;2023-03-12T02:15:04;100392;;;5.2;100
49583;BME280;36329;48.816;44.624;2023-03-12T02:18:08;100392;;;5.3;100
49583;BME280;36329;48.816;44.624;2023-03-12T02:21:15;100393;;;5.3;100
49583;BME280;36329;48.816;44.624;2023-03-12T02:24:27;100401;;;5.3;100
49583;BME280;36329;48.816;44.624;2023-03-12T02:27:43;100401;;;5.3;100
49583;BME280;36329;48.816;44.624;2023-03-12T02:30:47;100414;;;5.3;100
49583;BME280;36329;48.816;44.624;2023-03-12T02:33:51;100412;;;5.2;100
49583;BME280;36329;48.816;44.624;2023-03-12T02:36:54;100410;;;5.2;100
49583;BME280;36329;48.816;44.624;2023-03-12T02:40:01;100426;;;5.2;100
49583;BME280;36329;48.816;44.624;2023-03-12T02:43:08;100399;;;5.1;100
49583;BME280;36329;48.816;44.624;2023-03-12T02:46:11;100412;;;5;100
49583;BME280;36329;48.816;44.624;2023-03-12T02:49:15;100413;;;4.9;100
49583;BME280;36329;48.816;44.624;2023-03-12T02:52:18;100412;;;5;100
49583;BME280;36329;48.816;44.624;2023-03-12T02:55:20;100415;;;4.9;100
49583;BME280;36329;48.816;44.624;2023-03-12T02:58:22;100414;;;5;100
49583;BME280;36329;48.816;44.624;2023-03-12T03:01:25;100394;;;4.9;100
49583;BME280;36329;48.816;44.624;2023-03-12T03:04:30;100392;;;4.9;100
49583;BME280;36329;48.816;44.624;2023-03-12T03:07:38;100395;;;4.9;100
49583;BME280;36329;48.816;44.624;2023-03-12T03:10:40;100384;;;5;100
49583;BME280;36329;48.816;44.624;2023-03-12T03:13:42;100411;;;4.9;100
49583;BME280;36329;48.816;44.624;2023-03-12T03:16:45;100396;;;4.9;100
49583;BME280;36329;48.816;44.624;2023-03-12T03:19:49;100410;;;4.9;100
49583;BME280;36329;48.816;44.624;2023-03-12T03:22:56;100422;;;5;100
49583;BME280;36329;48.816;44.624;2023-03-12T03:25:59;100408;;;5;100
49583;BME280;36329;48.816;44.624;2023-03-12T03:29:01;100424;;;4.9;100
49583;BME280;36329;48.816;44.624;2023-03-12T03:32:04;100410;;;5;100
49583;BME280;36329;48.816;44.624;2023-03-12T03:35:13;100417;;;4.9;100
49583;BME280;36329;48.816;44.624;2023-03-12T03:38:20;100403;;;5;100
49583;BME280;36329;48.816;44.624;2023-03-12T03:41:22;100406;;;4.9;100
49583;BME280;36329;48.816;44.624;2023-03-12T03:44:25;100413;;;4.9;100
49583;BME280;36329;48.816;44.624;2023-03-12T03:47:26;100410;;;4.8;100
49583;BME280;36329;48.816;44.624;2023-03-12T03:50:34;100406;;;4.9;100
49583;BME280;36329;48.816;44.624;2023-03-12T03:53:44;100413;;;4.9;100
49583;BME280;36329;48.816;44.624;2023-03-12T03:56:58;100398;;;4.9;100
49583;BME280;36329;48.816;44.624;2023-03-12T04:00:00;100389;;;4.8;100
49583;BME280;36329;48.816;44.624;2023-03-12T04:03:09;100397;;;4.8;100
49583;BME280;36329;48.816;44.624;2023-03-12T04:06:17;100394;;;4.8;100
49583;BME280;36329;48.816;44.624;2023-03-12T04:09:22;100399;;;4.9;100
49583;BME280;36329;48.816;44.624;2023-03-12T04:12:26;100403;;;4.9;100
49583;BME280;36329;48.816;44.624;2023-03-12T04:15:44;100400;;;4.9;100
49583;BME280;36329;48.816;44.624;2023-03-12T04:18:48;100393;;;4.9;100
49583;BME280;36329;48.816;44.624;2023-03-12T04:22:01;100385;;;4.9;100
49583;BME280;36329;48.816;44.624;2023-03-12T04:25:06;100398;;;5;100
49583;BME280;36329;48.816;44.624;2023-03-12T04:28:14;100404;;;4.9;100
49583;BME280;36329;48.816;44.624;2023-03-12T04:31:18;100396;;;4.9;100
49583;BME280;36329;48.816;44.624;2023-03-12T04:34:20;100391;;;5;100
49583;BME280;36329;48.816;44.624;2023-03-12T04:37:23;100403;;;5;100
49583;BME280;36329;48.816;44.624;2023-03-12T04:40:37;100407;;;5;100
49583;BME280;36329;48.816;44.624;2023-03-12T04:43:39;100400;;;5;100
49583;BME280;36329;48.816;44.624;2023-03-12T04:46:42;100430;;;5;100
49583;BME280;36329;48.816;44.624;2023-03-12T04:49:44;100424;;;5;100
49583;BME280;36329;48.816;44.624;2023-03-12T04:52:46;100423;;;5;100
49583;BME280;36329;48.816;44.624;2023-03-12T04:56:02;100419;;;5.1;100
49583;BME280;36329;48.816;44.624;2023-03-12T04:59:06;100425;;;5;100
49583;BME280;36329;48.816;44.624;2023-03-12T05:02:16;100408;;;5;100
49583;BME280;36329;48.816;44.624;2023-03-12T05:05:20;100423;;;5.1;100
49583;BME280;36329;48.816;44.624;2023-03-12T05:08:23;100414;;;5.1;100
49583;BME280;36329;48.816;44.624;2023-03-12T05:11:25;100432;;;5.1;100
49583;BME280;36329;48.816;44.624;2023-03-12T05:14:30;100416;;;5;100
49583;BME280;36329;48.816;44.624;2023-03-12T05:17:36;100412;;;5.1;100
49583;BME280;36329;48.816;44.624;2023-03-12T05:20:40;100408;;;5;100
49583;BME280;36329;48.816;44.624;2023-03-12T05:23:52;100398;;;5;100
49583;BME280;36329;48.816;44.624;2023-03-12T05:27:01;100408;;;5.1;100
49583;BME280;36329;48.816;44.624;2023-03-12T05:30:15;100418;;;5.1;100
49583;BME280;36329;48.816;44.624;2023-03-12T05:33:19;100409;;;5.1;100
49583;BME280;36329;48.816;44.624;2023-03-12T05:36:22;100434;;;5.2;100
49583;BME280;36329;48.816;44.624;2023-03-12T05:39:29;100402;;;5.2;100
49583;BME280;36329;48.816;44.624;2023-03-12T05:42:33;100407;;;5.3;100
49583;BME280;36329;48.816;44.624;2023-03-12T05:45:42;100429;;;5.3;100
49583;BME280;36329;48.816;44.624;2023-03-12T05:48:46;100437;;;5.3;100
49583;BME280;36329;48.816;44.624;2023-03-12T05:51:51;100445;;;5.4;100
49583;BME280;36329;48.816;44.624;2023-03-12T05:54:54;100453;;;5.4;100
49583;BME280;36329;48.816;44.624;2023-03-12T05:58:00;100434;;;5.5;100
49583;BME280;36329;48.816;44.624;2023-03-12T06:01:12;100431;;;5.6;100
49583;BME280;36329;48.816;44.624;2023-03-12T06:04:29;100462;;;5.5;100
49583;BME280;36329;48.816;44.624;2023-03-12T06:07:42;100459;;;5.6;100
49583;BME280;36329;48.816;44.624;2023-03-12T06:11:01;100470;;;5.7;100
49583;BME280;36329;48.816;44.624;2023-03-12T06:14:14;100444;;;5.6;100
49583;BME280;36329;48.816;44.624;2023-03-12T06:17:17;100455;;;5.6;100
49583;BME280;36329;48.816;44.624;2023-03-12T06:20:20;100461;;;5.6;100
49583;BME280;36329;48.816;44.624;2023-03-12T06:23:31;100456;;;5.6;100
49583;BME280;36329;48.816;44.624;2023-03-12T06:26:51;100436;;;5.6;100
49583;BME280;36329;48.816;44.624;2023-03-12T06:30:01;100454;;;5.6;100
49583;BME280;36329;48.816;44.624;2023-03-12T06:33:14;100426;;;5.8;100
49583;BME280;36329;48.816;44.624;2023-03-12T06:36:19;100444;;;5.7;100
49583;BME280;36329;48.816;44.624;2023-03-12T06:39:25;100436;;;5.7;100
49583;BME280;36329;48.816;44.624;2023-03-12T06:42:28;100453;;;5.7;100
49583;BME280;36329;48.816;44.624;2023-03-12T06:45:43;100435;;;5.8;100
49583;BME280;36329;48.816;44.624;2023-03-12T06:48:51;100435;;;5.7;100
49583;BME280;36329;48.816;44.624;2023-03-12T06:52:06;100429;;;5.7;100
49583;BME280;36329;48.816;44.624;2023-03-12T06:55:33;100425;;;5.7;100
49583;BME280;36329;48.816;44.624;2023-03-12T06:58:44;100412;;;5.9;100
49583;BME280;36329;48.816;44.624;2023-03-12T07:01:57;100402;;;6;100
49583;BME280;36329;48.816;44.624;2023-03-12T07:05:10;100424;;;6;100
49583;BME280;36329;48.816;44.624;2023-03-12T07:08:27;100433;;;6.2;100
49583;BME280;36329;48.816;44.624;2023-03-12T07:11:44;100429;;;6.1;100
49583;BME280;36329;48.816;44.624;2023-03-12T07:14:55;100414;;;6.1;100
49583;BME280;36329;48.816;44.624;2023-03-12T07:18:13;100431;;;6.2;100
49583;BME280;36329;48.816;44.624;2023-03-12T07:21:16;100449;;;6.3;100
49583;BME280;36329;48.816;44.624;2023-03-12T07:24:31;100450;;;6.4;100
49583;BME280;36329;48.816;44.624;2023-03-12T07:27:34;100428;;;6.4;100
49583;BME280;36329;48.816;44.624;2023-03-12T07:30:41;100432;;;6.4;100
49583;BME280;36329;48.816;44.624;2023-03-12T07:34:00;100418;;;6.3;100
49583;BME280;36329;48.816;44.624;2023-03-12T07:37:10;100435;;;6.3;100
49583;BME280;36329;48.816;44.624;2023-03-12T07:40:28;100428;;;6.3;100
49583;BME280;36329;48.816;44.624;2023-03-12T07:47:04;100415;;;6.3;100
49583;BME280;36329;48.816;44.624;2023-03-12T07:50:08;100423;;;6.2;100
49583;BME280;36329;48.816;44.624;2023-03-12T07:53:17;100433;;;6.2;100
49583;BME280;36329;48.816;44.624;2023-03-12T07:56:34;100455;;;6.3;100
49583;BME280;36329;48.816;44.624;2023-03-12T07:59:43;100412;;;6.3;100
49583;BME280;36329;48.816;44.624;2023-03-12T08:02:57;100384;;;6.4;100
49583;BME280;36329;48.816;44.624;2023-03-12T08:06:08;100386;;;6.3;100
49583;BME280;36329;48.816;44.624;2023-03-12T08:09:14;100397;;;6.3;100
49583;BME280;36329;48.816;44.624;2023-03-12T08:12:21;100386;;;6.4;100
49583;BME280;36329;48.816;44.624;2023-03-12T08:15:36;100402;;;6.3;100
49583;BME280;36329;48.816;44.624;2023-03-12T08:18:48;100374;;;6.3;100
49583;BME280;36329;48.816;44.624;2023-03-12T08:22:19;100373;;;6.3;100
49583;BME280;36329;48.816;44.624;2023-03-12T08:25:39;100366;;;6.4;100
49583;BME280;36329;48.816;44.624;2023-03-12T08:28:58;100358;;;6.4;100
49583;BME280;36329;48.816;44.624;2023-03-12T08:32:04;100355;;;6.3;100
49583;BME280;36329;48.816;44.624;2023-03-12T08:35:10;100346;;;6.3;100
49583;BME280;36329;48.816;44.624;2023-03-12T08:38:21;100350;;;6.3;100
49583;BME280;36329;48.816;44.624;2023-03-12T08:41:52;100334;;;6.4;100
49583;BME280;36329;48.816;44.624;2023-03-12T08:44:56;100321;;;6.4;100
49583;BME280;36329;48.816;44.624;2023-03-12T08:48:22;100315;;;6.4;100
49583;BME280;36329;48.816;44.624;2023-03-12T08:51:49;100312;;;6.5;100
49583;BME280;36329;48.816;44.624;2023-03-12T08:55:25;100317;;;6.4;100
49583;BME280;36329;48.816;44.624;2023-03-12T08:59:06;100300;;;6.5;100
49583;BME280;36329;48.816;44.624;2023-03-12T09:02:26;100294;;;6.6;100
49583;BME280;36329;48.816;44.624;2023-03-12T09:05:35;100299;;;6.6;100
49583;BME280;36329;48.816;44.624;2023-03-12T09:08:49;100288;;;6.5;100
49583;BME280;36329;48.816;44.624;2023-03-12T09:11:55;100317;;;6.6;100
49583;BME280;36329;48.816;44.624;2023-03-12T09:15:11;100323;;;6.6;100
49583;BME280;36329;48.816;44.624;2023-03-12T09:18:19;100339;;;6.7;100
49583;BME280;36329;48.816;44.624;2023-03-12T09:21:37;100343;;;6.8;100
49583;BME280;36329;48.816;44.624;2023-03-12T09:25:03;100331;;;6.8;100
49583;BME280;36329;48.816;44.624;2023-03-12T09:28:36;100345;;;6.7;100
49583;BME280;36329;48.816;44.624;2023-03-12T09:32:01;100336;;;6.7;100
49583;BME280;36329;48.816;44.624;2023-03-12T09:35:14;100330;;;6.8;100
49583;BME280;36329;48.816;44.624;2023-03-12T09:38:43;100350;;;6.8;100
49583;BME280;36329;48.816;44.624;2023-03-12T09:42:18;100335;;;6.7;100
49583;BME280;36329;48.816;44.624;2023-03-12T09:45:32;100336;;;6.8;100
49583;BME280;36329;48.816;44.624;2023-03-12T09:48:48;100327;;;6.8;100
49583;BME280;36329;48.816;44.624;2023-03-12T09:51:55;100342;;;6.8;100
49583;BME280;36329;48.816;44.624;2023-03-12T09:55:09;100316;;;6.9;100
49583;BME280;36329;48.816;44.624;2023-03-12T09:58:37;100308;;;6.9;100
49583;BME280;36329;48.816;44.624;2023-03-12T10:01:52;100289;;;7;100
49583;BME280;36329;48.816;44.624;2023-03-12T10:05:23;100297;;;6.9;100
49583;BME280;36329;48.816;44.624;2023-03-12T10:08:49;100306;;;6.9;100
49583;BME280;36329;48.816;44.624;2023-03-12T10:12:18;100307;;;6.9;100
49583;BME280;36329;48.816;44.624;2023-03-12T10:15:44;100323;;;7.1;100
49583;BME280;36329;48.816;44.624;2023-03-12T10:19:11;100314;;;7.2;100
49583;BME280;36329;48.816;44.624;2023-03-12T10:22:34;100302;;;7.4;100
49583;BME280;36329;48.816;44.624;2023-03-12T10:26:15;100295;;;7.5;100
49583;BME280;36329;48.816;44.624;2023-03-12T10:29:25;100328;;;7.4;100
49583;BME280;36329;48.816;44.624;2023-03-12T10:32:46;100319;;;7.5;100
49583;BME280;36329;48.816;44.624;2023-03-12T10:36:09;100296;;;7.5;100
49583;BME280;36329;48.816;44.624;2023-03-12T10:39:26;100311;;;7.3;100
49583;BME280;36329;48.816;44.624;2023-03-12T10:42:53;100315;;;7.3;100
49583;BME280;36329;48.816;44.624;2023-03-12T10:49:44;100311;;;7.3;100
49583;BME280;36329;48.816;44.624;2023-03-12T10:53:28;100318;;;7.4;100
49583;BME280;36329;48.816;44.624;2023-03-12T10:56:47;100318;;;7.4;100
49583;BME280;36329;48.816;44.624;2023-03-12T11:00:04;100316;;;7.5;100
49583;BME280;36329;48.816;44.624;2023-03-12T11:03:20;100297;;;7.4;100
49583;BME280;36329;48.816;44.624;2023-03-12T11:06:32;100293;;;7.5;100
49583;BME280;36329;48.816;44.624;2023-03-12T11:09:37;100314;;;7.5;100
49583;BME280;36329;48.816;44.624;2023-03-12T11:13:00;100288;;;7.6;100
49583;BME280;36329;48.816;44.624;2023-03-12T11:16:30;100290;;;7.6;100
49583;BME280;36329;48.816;44.624;2023-03-12T11:19:34;100284;;;7.5;100
49583;BME280;36329;48.816;44.624;2023-03-12T11:22:42;100294;;;7.5;100
49583;BME280;36329;48.816;44.624;2023-03-12T11:26:00;100273;;;7.6;100
49583;BME280;36329;48.816;44.624;2023-03-12T11:29:23;100305;;;7.6;100
49583;BME280;36329;48.816;44.624;2023-03-12T11:32:36;100289;;;7.4;100
49583;BME280;36329;48.816;44.624;2023-03-12T11:35:49;100276;;;7.5;100
49583;BME280;36329;48.816;44.624;2023-03-12T11:39:25;100291;;;7.5;100
49583;BME280;36329;48.816;44.624;2023-03-12T11:42:51;100301;;;7.5;100
49583;BME280;36329;48.816;44.624;2023-03-12T11:46:08;100280;;;7.7;100
49583;BME280;36329;48.816;44.624;2023-03-12T11:49:48;100285;;;7.7;100
49583;BME280;36329;48.816;44.624;2023-03-12T11:53:18;100305;;;7.8;100
49583;BME280;36329;48.816;44.624;2023-03-12T11:57:03;100307;;;7.7;100
49583;BME280;36329;48.816;44.624;2023-03-12T12:00:52;100312;;;7.8;100
49583;BME280;36329;48.816;44.624;2023-03-12T12:04:12;100333;;;7.8;100
49583;BME280;36329;48.816;44.624;2023-03-12T12:07:34;100318;;;7.8;100
49583;BME280;36329;48.816;44.624;2023-03-12T12:11:08;100324;;;7.9;100
49583;BME280;36329;48.816;44.624;2023-03-12T12:14:29;100302;;;8.1;100
49583;BME280;36329;48.816;44.624;2023-03-12T12:18:08;100308;;;8.2;100
49583;BME280;36329;48.816;44.624;2023-03-12T12:21:55;100294;;;8;100
49583;BME280;36329;48.816;44.624;2023-03-12T12:25:48;100299;;;8.1;100
49583;BME280;36329;48.816;44.624;2023-03-12T12:29:27;100296;;;8;100
49583;BME280;36329;48.816;44.624;2023-03-12T12:32:51;100286;;;8.1;100
49583;BME280;36329;48.816;44.624;2023-03-12T12:36:22;100304;;;7.9;100
49583;BME280;36329;48.816;44.624;2023-03-12T12:43:34;100291;;;7.7;100
49583;BME280;36329;48.816;44.624;2023-03-12T12:47:10;100298;;;7.7;100
49583;BME280;36329;48.816;44.624;2023-03-12T12:50:38;100318;;;7.6;100
49583;BME280;36329;48.816;44.624;2023-03-12T12:54:22;100310;;;7.6;100
49583;BME280;36329;48.816;44.624;2023-03-12T12:57:41;100319;;;7.7;100
49583;BME280;36329;48.816;44.624;2023-03-12T13:00:55;100322;;;7.8;100
49583;BME280;36329;48.816;44.624;2023-03-12T13:05:12;100326;;;7.7;100
49583;BME280;36329;48.816;44.624;2023-03-12T13:12:19;100269;;;7.7;100
49583;BME280;36329;48.816;44.624;2023-03-12T13:15:42;100271;;;7.6;100
49583;BME280;36329;48.816;44.624;2023-03-12T13:18:56;100268;;;7.6;100
49583;BME280;36329;48.816;44.624;2023-03-12T13:22:30;100250;;;7.5;100
49583;BME280;36329;48.816;44.624;2023-03-12T13:26:26;100247;;;7.4;100
49583;BME280;36329;48.816;44.624;2023-03-12T13:29:46;100243;;;7.4;100
49583;BME280;36329;48.816;44.624;2023-03-12T13:33:12;100243;;;7.4;100
49583;BME280;36329;48.816;44.624;2023-03-12T13:36:37;100276;;;7.5;100
49583;BME280;36329;48.816;44.624;2023-03-12T13:44:00;100294;;;7.6;100
49583;BME280;36329;48.816;44.624;2023-03-12T13:47:27;100293;;;7.6;100
49583;BME280;36329;48.816;44.624;2023-03-12T13:51:03;100297;;;7.6;100
49583;BME280;36329;48.816;44.624;2023-03-12T13:54:34;100287;;;7.6;100
49583;BME280;36329;48.816;44.624;2023-03-12T13:58:00;100287;;;7.5;100
49583;BME280;36329;48.816;44.624;2023-03-12T14:01:18;100286;;;7.6;100
49583;BME280;36329;48.816;44.624;2023-03-12T14:04:42;100289;;;7.6;100
49583;BME280;36329;48.816;44.624;2023-03-12T14:08:13;100299;;;7.6;100
49583;BME280;36329;48.816;44.624;2023-03-12T14:15:01;100305;;;7.5;100
49583;BME280;36329;48.816;44.624;2023-03-12T14:18:28;100295;;;7.5;100
49583;BME280;36329;48.816;44.624;2023-03-12T14:22:06;100293;;;7.4;100
49583;BME280;36329;48.816;44.624;2023-03-12T14:25:36;100285;;;7.4;100
49583;BME280;36329;48.816;44.624;2023-03-12T14:29:19;100281;;;7.4;100
49583;BME280;36329;48.816;44.624;2023-03-12T14:32:31;100274;;;7.4;100
49583;BME280;36329;48.816;44.624;2023-03-12T14:36:05;100275;;;7.4;100
49583;BME280;36329;48.816;44.624;2023-03-12T14:39:58;100270;;;7.4;100
49583;BME280;36329;48.816;44.624;2023-03-12T14:43:23;100278;;;7.3;100
49583;BME280;36329;48.816;44.624;2023-03-12T14:46:30;100276;;;7.3;100
49583;BME280;36329;48.816;44.624;2023-03-12T14:49:57;100277;;;7.2;100
49583;BME280;36329;48.816;44.624;2023-03-12T14:53:23;100284;;;7.3;100
49583;BME280;36329;48.816;44.624;2023-03-12T14:56:46;100295;;;7.3;100
49583;BME280;36329;48.816;44.624;2023-03-12T15:00:23;100287;;;7.2;100
49583;BME280;36329;48.816;44.624;2023-03-12T15:03:51;100305;;;7.2;100
49583;BME280;36329;48.816;44.624;2023-03-12T15:07:10;100298;;;7.2;100
49583;BME280;36329;48.816;44.624;2023-03-12T15:10:53;100316;;;7.2;100
49583;BME280;36329;48.816;44.624;2023-03-12T15:14:32;100315;;;7.2;100
49583;BME280;36329;48.816;44.624;2023-03-12T15:17:49;100318;;;7.2;100
49583;BME280;36329;48.816;44.624;2023-03-12T15:21:12;100313;;;7.3;100
49583;BME280;36329;48.816;44.624;2023-03-12T15:24:39;100298;;;7.3;100
49583;BME280;36329;48.816;44.624;2023-03-12T15:31:47;100313;;;7.2;100
49583;BME280;36329;48.816;44.624;2023-03-12T15:35:40;100334;;;7.3;100
49583;BME280;36329;48.816;44.624;2023-03-12T15:39:24;100361;;;7.2;100
49583;BME280;36329;48.816;44.624;2023-03-12T15:42:54;100360;;;7.2;100
49583;BME280;36329;48.816;44.624;2023-03-12T15:46:10;100354;;;7.3;100
49583;BME280;36329;48.816;44.624;2023-03-12T15:49:34;100358;;;7.3;100
49583;BME280;36329;48.816;44.624;2023-03-12T15:56:40;100383;;;7.2;100
49583;BME280;36329;48.816;44.624;2023-03-12T16:00:20;100380;;;7.3;100
49583;BME280;36329;48.816;44.624;2023-03-12T16:03:36;100391;;;7.2;100
49583;BME280;36329;48.816;44.624;2023-03-12T16:07:16;100387;;;7.2;100
49583;BME280;36329;48.816;44.624;2023-03-12T16:10:33;100384;;;7.2;100
49583;BME280;36329;48.816;44.624;2023-03-12T16:13:52;100389;;;7.1;100
49583;BME280;36329;48.816;44.624;2023-03-12T16:17:09;100393;;;7.1;100
49583;BME280;36329;48.816;44.624;2023-03-12T16:20:52;100398;;;7;100
49583;BME280;36329;48.816;44.624;2023-03-12T16:24:19;100406;;;7.1;100
49583;BME280;36329;48.816;44.624;2023-03-12T16:27:46;100399;;;7.1;100
49583;BME280;36329;48.816;44.624;2023-03-12T16:34:37;100392;;;7;100
49583;BME280;36329;48.816;44.624;2023-03-12T16:37:54;100395;;;7.2;100
49583;BME280;36329;48.816;44.624;2023-03-12T16:40:59;100394;;;7.1;100
49583;BME280;36329;48.816;44.624;2023-03-12T16:44:25;100395;;;7.1;100
49583;BME280;36329;48.816;44.624;2023-03-12T16:47:30;100389;;;7.1;100
49583;BME280;36329;48.816;44.624;2023-03-12T16:50:50;100385;;;7.2;100
49583;BME280;36329;48.816;44.624;2023-03-12T16:53:55;100396;;;7.1;100
49583;BME280;36329;48.816;44.624;2023-03-12T16:57:13;100399;;;7.2;100
49583;BME280;36329;48.816;44.624;2023-03-12T17:00:29;100390;;;7.2;100
49583;BME280;36329;48.816;44.624;2023-03-12T17:03:43;100389;;;7.1;100
49583;BME280;36329;48.816;44.624;2023-03-12T17:07:03;100386;;;7.1;100
49583;BME280;36329;48.816;44.624;2023-03-12T17:10:24;100382;;;7.2;100
49583;BME280;36329;48.816;44.624;2023-03-12T17:13:41;100387;;;7.1;100
49583;BME280;36329;48.816;44.624;2023-03-12T17:17:05;100377;;;7;100
49583;BME280;36329;48.816;44.624;2023-03-12T17:20:29;100379;;;6.9;100
49583;BME280;36329;48.816;44.624;2023-03-12T17:24:00;100376;;;7;100
49583;BME280;36329;48.816;44.624;2023-03-12T17:27:22;100374;;;6.9;100
49583;BME280;36329;48.816;44.624;2023-03-12T17:30:37;100370;;;6.9;100
49583;BME280;36329;48.816;44.624;2023-03-12T17:33:53;100370;;;7;100
49583;BME280;36329;48.816;44.624;2023-03-12T17:37:00;100377;;;7;100
49583;BME280;36329;48.816;44.624;2023-03-12T17:40:28;100382;;;7.1;100
49583;BME280;36329;48.816;44.624;2023-03-12T17:43:40;100388;;;7.2;100
49583;BME280;36329;48.816;44.624;2023-03-12T17:47:07;100374;;;7.2;100
49583;BME280;36329;48.816;44.624;2023-03-12T17:50:13;100382;;;7.3;100
49583;BME280;36329;48.816;44.624;2023-03-12T17:53:30;100376;;;7.2;100
49583;BME280;36329;48.816;44.624;2023-03-12T17:57:03;100374;;;7.3;100
49583;BME280;36329;48.816;44.624;2023-03-12T18:00:35;100375;;;7.3;100
49583;BME280;36329;48.816;44.624;2023-03-12T18:04:00;100373;;;7.4;100
49583;BME280;36329;48.816;44.624;2023-03-12T18:07:06;100378;;;7.4;100
49583;BME280;36329;48.816;44.624;2023-03-12T18:10:14;100384;;;7.5;100
49583;BME280;36329;48.816;44.624;2023-03-12T18:13:41;100367;;;7.5;100
49583;BME280;36329;48.816;44.624;2023-03-12T18:16:52;100368;;;7.6;100
49583;BME280;36329;48.816;44.624;2023-03-12T18:20:07;100373;;;7.7;100
49583;BME280;36329;48.816;44.624;2023-03-12T18:23:18;100370;;;7.7;100
49583;BME280;36329;48.816;44.624;2023-03-12T18:26:47;100388;;;7.6;100
49583;BME280;36329;48.816;44.624;2023-03-12T18:30:13;100378;;;7.6;100
49583;BME280;36329;48.816;44.624;2023-03-12T18:33:24;100380;;;7.8;100
49583;BME280;36329;48.816;44.624;2023-03-12T18:36:36;100379;;;7.8;100
49583;BME280;36329;48.816;44.624;2023-03-12T18:39:49;100376;;;7.7;100
49583;BME280;36329;48.816;44.624;2023-03-12T18:43:10;100375;;;7.7;100
49583;BME280;36329;48.816;44.624;2023-03-12T18:46:28;100361;;;7.7;100
49583;BME280;36329;48.816;44.624;2023-03-12T18:49:42;100371;;;7.7;100
49583;BME280;36329;48.816;44.624;2023-03-12T18:52:51;100357;;;7.7;100
49583;BME280;36329;48.816;44.624;2023-03-12T18:55:56;100364;;;7.7;100
49583;BME280;36329;48.816;44.624;2023-03-12T18:58:59;100367;;;7.7;100
49583;BME280;36329;48.816;44.624;2023-03-12T19:02:04;100366;;;7.7;100
49583;BME280;36329;48.816;44.624;2023-03-12T19:05:12;100368;;;7.7;100
49583;BME280;36329;48.816;44.624;2023-03-12T19:08:15;100362;;;7.8;100